LPPSLEVT

Guest
Details From LPPS - Porto Santo
To LEVT - Vitoria
Flight Number -
Tags Generated
Created
Modified
Stats Distance 870 nm / 1,612 km
Max Altitude 0 ft / 0 m
Waypoints 5
Social Downloads 0
Likes 0
Share VATSIM

Download

Looking for another format? Having issues loading an existing format? Contact us
Advertisement - Login to hide

Notes

Generated

Route

LPPS DEKUS BARDI LOPNA LEVT

ID Type Via Altitude Latitude Longitude Leg Dist Tot Dist Heading (true) Name
O LPPS APT - 0 ft / 0 m 33.08696˚ -16.35048˚ - 0 nm - -
DEKUS FIX - 0 ft / 0 m 38.01528˚ -10.00000˚ 428 nm 428 nm 45° / 48° -
BARDI FIX - 0 ft / 0 m 40.58349˚ -6.30246˚ 230 nm 659 nm 47° / 49° -
LOPNA FIX - 0 ft / 0 m 42.64951˚ -3.01556˚ 192 nm 852 nm 49° / 51° -
O LEVT APT - 0 ft / 0 m 42.87009˚ -2.73703˚ 18 nm 870 nm 43° / 43° -

Altitude Profile

Advertisement - Login to hide

Weather


0- 5 10 15 20 25 30 35+ Temperature / ° C

Clouds and Precipitation
Forecast for 2017-12-12 06:00 UTC. Updated 2 hours ago

Ground ~20,000 ft ~40,000 ft Winds

LPPS

Details ICAO LPPS (PXO)
Name Porto Santo
Region Portugal
Timezone Atlantic/Madeira (UTC+0.0)
Stats Elevation 340 ft / 104 m (AMSL)
Location 33.073413° -16.349946°
Runways 1
Magnetic Variation 4.820° W

METAR

LPPS 120500Z 01019G31KT 9999 SCT014 FEW016TCU 16/11 Q1020

Decode

TAF

TAF LPPS 112300Z 1200/1306 02015KT 9999 SCT015 TEMPO 1200/1306 02020G30KT SCT012 FEW016TCU

Decode

Departure Runways

ID Width Length Bearing (true) Bearing (mag) Surface Threshold Offset Overrun Length
18 148 ft / 45 m 9,890 ft / 3,014 m 178.11° 182.93° Asphalt 0 ft / 0 m 0 ft / 0 m
36 148 ft / 45 m 9,890 ft / 3,014 m 358.12° 2.94° Asphalt 0 ft / 0 m 499 ft / 152 m

LEVT

Details ICAO LEVT (VIT)
Name Vitoria
Region Spain
Timezone Europe/Madrid (UTC+1.0)
Stats Elevation 1,682 ft / 513 m (AMSL)
Location 42.882847° -2.724460°
Runways 1
Magnetic Variation 0.549° W

METAR

LEVT 120500Z 25006KT 210V290 9999 BKN038 01/M00 Q1011

Decode

TAF

TAF LEVT 112300Z 1200/1224 22009KT 9999 SCT015 BKN030 TX08/1213Z TN00/1206Z PROB40 TEMPO 1200/1205 3000 SHRA SCT030TCU PROB30 TEMPO 1200/1205 3000 TSRAGR BKN014 BKN025CB

Decode

Destination Runways

ID Width Length Bearing (true) Bearing (mag) Surface Threshold Offset Overrun Length
04 148 ft / 45 m 11,481 ft / 3,500 m 35.83° 36.38° Asphalt 0 ft / 0 m 164 ft / 50 m
22 148 ft / 45 m 11,481 ft / 3,500 m 215.85° 216.40° Asphalt 0 ft / 0 m 164 ft / 50 m

Approach Navaids

Runway Type Ident Frequency Range Bearing (true) Bearing (mag) Slope Elevation
04 Localiser VTO 108.90 MHz 18 nm / 33 km 35.85° 36.40° - 1,682 ft / 513 m (AMSL)
04 Glidescope VTO 108.90 MHz 10 nm / 19 km 35.84° 36.39° 3.00° 1,682 ft / 513 m (AMSL)
04 DME VTO 108.90 MHz 18 nm / 33 km - - - 1,681 ft / 512 m (AMSL)